sensor_id;sensor_type;location;lat;lon;timestamp;P1;durP1;ratioP1;P2;durP2;ratioP2
59167;SDS011;70412;55.048;73.268;2023-11-19T00:01:59;32.20;;;4.13;;
59167;SDS011;70412;55.048;73.268;2023-11-19T00:05:01;4.25;;;1.88;;
59167;SDS011;70412;55.048;73.268;2023-11-19T00:08:03;1.98;;;0.70;;
59167;SDS011;70412;55.048;73.268;2023-11-19T00:11:07;3.22;;;0.93;;
59167;SDS011;70412;55.048;73.268;2023-11-19T00:14:09;4.95;;;1.27;;
59167;SDS011;70412;55.048;73.268;2023-11-19T00:17:11;4.85;;;1.63;;
59167;SDS011;70412;55.048;73.268;2023-11-19T00:20:15;3.60;;;2.03;;
59167;SDS011;70412;55.048;73.268;2023-11-19T00:23:20;6.40;;;2.10;;
59167;SDS011;70412;55.048;73.268;2023-11-19T00:26:23;13.75;;;2.83;;
59167;SDS011;70412;55.048;73.268;2023-11-19T00:29:30;10.77;;;2.16;;
59167;SDS011;70412;55.048;73.268;2023-11-19T00:32:33;19.23;;;3.15;;
59167;SDS011;70412;55.048;73.268;2023-11-19T00:35:35;7.88;;;1.83;;
59167;SDS011;70412;55.048;73.268;2023-11-19T00:38:37;19.40;;;3.90;;
59167;SDS011;70412;55.048;73.268;2023-11-19T00:41:40;11.27;;;1.85;;
59167;SDS011;70412;55.048;73.268;2023-11-19T00:44:44;11.63;;;1.73;;
59167;SDS011;70412;55.048;73.268;2023-11-19T00:47:47;10.10;;;3.20;;
59167;SDS011;70412;55.048;73.268;2023-11-19T00:50:50;23.02;;;2.85;;
59167;SDS011;70412;55.048;73.268;2023-11-19T00:53:52;21.45;;;3.45;;
59167;SDS011;70412;55.048;73.268;2023-11-19T00:56:55;18.00;;;4.30;;
59167;SDS011;70412;55.048;73.268;2023-11-19T00:59:57;8.83;;;1.83;;
59167;SDS011;70412;55.048;73.268;2023-11-19T01:03:00;6.95;;;1.58;;
59167;SDS011;70412;55.048;73.268;2023-11-19T01:06:02;10.98;;;2.35;;
59167;SDS011;70412;55.048;73.268;2023-11-19T01:09:06;2.05;;;1.00;;
59167;SDS011;70412;55.048;73.268;2023-11-19T01:12:10;5.68;;;1.20;;
59167;SDS011;70412;55.048;73.268;2023-11-19T01:15:12;7.93;;;1.35;;
59167;SDS011;70412;55.048;73.268;2023-11-19T01:18:15;3.72;;;1.20;;
59167;SDS011;70412;55.048;73.268;2023-11-19T01:21:18;1.87;;;1.10;;
59167;SDS011;70412;55.048;73.268;2023-11-19T01:24:20;2.88;;;0.90;;
59167;SDS011;70412;55.048;73.268;2023-11-19T01:27:23;1.92;;;0.73;;
59167;SDS011;70412;55.048;73.268;2023-11-19T01:30:26;3.92;;;0.85;;
59167;SDS011;70412;55.048;73.268;2023-11-19T01:33:28;2.72;;;0.75;;
59167;SDS011;70412;55.048;73.268;2023-11-19T01:36:31;5.03;;;1.25;;
59167;SDS011;70412;55.048;73.268;2023-11-19T01:39:34;1.58;;;0.80;;
59167;SDS011;70412;55.048;73.268;2023-11-19T01:42:39;1.70;;;0.50;;
59167;SDS011;70412;55.048;73.268;2023-11-19T01:45:42;2.42;;;0.82;;
59167;SDS011;70412;55.048;73.268;2023-11-19T01:48:45;1.50;;;0.70;;
59167;SDS011;70412;55.048;73.268;2023-11-19T01:51:49;1.92;;;0.80;;
59167;SDS011;70412;55.048;73.268;2023-11-19T01:54:52;11.90;;;2.22;;
59167;SDS011;70412;55.048;73.268;2023-11-19T01:57:58;2.90;;;1.23;;
59167;SDS011;70412;55.048;73.268;2023-11-19T02:01:03;1.73;;;0.70;;
59167;SDS011;70412;55.048;73.268;2023-11-19T02:04:15;1.45;;;0.70;;
59167;SDS011;70412;55.048;73.268;2023-11-19T02:07:18;2.13;;;0.90;;
59167;SDS011;70412;55.048;73.268;2023-11-19T02:10:25;3.00;;;1.14;;
59167;SDS011;70412;55.048;73.268;2023-11-19T02:13:27;1.88;;;1.00;;
59167;SDS011;70412;55.048;73.268;2023-11-19T02:16:32;2.33;;;0.90;;
59167;SDS011;70412;55.048;73.268;2023-11-19T02:19:35;4.57;;;1.67;;
59167;SDS011;70412;55.048;73.268;2023-11-19T02:22:37;2.75;;;1.38;;
59167;SDS011;70412;55.048;73.268;2023-11-19T02:25:40;6.75;;;1.98;;
59167;SDS011;70412;55.048;73.268;2023-11-19T02:28:43;6.07;;;2.03;;
59167;SDS011;70412;55.048;73.268;2023-11-19T02:31:46;2.75;;;1.30;;
59167;SDS011;70412;55.048;73.268;2023-11-19T02:34:48;4.35;;;1.70;;
59167;SDS011;70412;55.048;73.268;2023-11-19T02:37:51;5.80;;;1.95;;
59167;SDS011;70412;55.048;73.268;2023-11-19T02:40:53;5.65;;;1.70;;
59167;SDS011;70412;55.048;73.268;2023-11-19T02:43:55;4.95;;;1.85;;
59167;SDS011;70412;55.048;73.268;2023-11-19T02:46:58;5.75;;;2.35;;
59167;SDS011;70412;55.048;73.268;2023-11-19T02:50:01;4.22;;;1.40;;
59167;SDS011;70412;55.048;73.268;2023-11-19T02:53:04;4.43;;;1.60;;
59167;SDS011;70412;55.048;73.268;2023-11-19T02:56:08;3.92;;;1.40;;
59167;SDS011;70412;55.048;73.268;2023-11-19T02:59:21;5.70;;;2.38;;
59167;SDS011;70412;55.048;73.268;2023-11-19T03:02:29;6.95;;;2.28;;
59167;SDS011;70412;55.048;73.268;2023-11-19T03:05:35;5.82;;;2.85;;
59167;SDS011;70412;55.048;73.268;2023-11-19T03:08:37;7.78;;;3.63;;
59167;SDS011;70412;55.048;73.268;2023-11-19T03:11:39;39.85;;;11.25;;
59167;SDS011;70412;55.048;73.268;2023-11-19T03:14:44;7.63;;;3.10;;
59167;SDS011;70412;55.048;73.268;2023-11-19T03:17:49;5.85;;;2.65;;
59167;SDS011;70412;55.048;73.268;2023-11-19T03:20:51;9.90;;;4.63;;
59167;SDS011;70412;55.048;73.268;2023-11-19T03:23:54;16.52;;;6.30;;
59167;SDS011;70412;55.048;73.268;2023-11-19T03:26:56;11.18;;;4.25;;
59167;SDS011;70412;55.048;73.268;2023-11-19T03:29:59;2.80;;;1.50;;
59167;SDS011;70412;55.048;73.268;2023-11-19T03:33:01;8.88;;;2.97;;
59167;SDS011;70412;55.048;73.268;2023-11-19T03:36:04;5.18;;;1.60;;
59167;SDS011;70412;55.048;73.268;2023-11-19T03:39:07;4.18;;;2.13;;
59167;SDS011;70412;55.048;73.268;2023-11-19T03:42:09;12.27;;;4.53;;
59167;SDS011;70412;55.048;73.268;2023-11-19T03:45:14;12.45;;;5.57;;
59167;SDS011;70412;55.048;73.268;2023-11-19T03:48:17;15.18;;;5.32;;
59167;SDS011;70412;55.048;73.268;2023-11-19T03:51:20;11.88;;;5.34;;
59167;SDS011;70412;55.048;73.268;2023-11-19T03:54:22;14.27;;;6.25;;
59167;SDS011;70412;55.048;73.268;2023-11-19T03:57:25;16.88;;;5.82;;
59167;SDS011;70412;55.048;73.268;2023-11-19T04:00:27;11.65;;;4.78;;
59167;SDS011;70412;55.048;73.268;2023-11-19T04:03:30;10.55;;;2.75;;
59167;SDS011;70412;55.048;73.268;2023-11-19T04:06:33;6.00;;;2.15;;
59167;SDS011;70412;55.048;73.268;2023-11-19T04:09:35;5.13;;;1.92;;
59167;SDS011;70412;55.048;73.268;2023-11-19T04:12:39;19.55;;;5.40;;
59167;SDS011;70412;55.048;73.268;2023-11-19T04:15:41;11.88;;;3.50;;
59167;SDS011;70412;55.048;73.268;2023-11-19T04:18:45;50.20;;;13.73;;
59167;SDS011;70412;55.048;73.268;2023-11-19T04:21:47;9.40;;;2.60;;
59167;SDS011;70412;55.048;73.268;2023-11-19T04:24:49;3.00;;;1.55;;
59167;SDS011;70412;55.048;73.268;2023-11-19T04:27:52;20.35;;;6.10;;
59167;SDS011;70412;55.048;73.268;2023-11-19T04:30:54;15.93;;;6.82;;
59167;SDS011;70412;55.048;73.268;2023-11-19T04:33:57;8.63;;;3.78;;
59167;SDS011;70412;55.048;73.268;2023-11-19T04:37:00;13.85;;;5.55;;
59167;SDS011;70412;55.048;73.268;2023-11-19T04:40:09;11.43;;;4.87;;
59167;SDS011;70412;55.048;73.268;2023-11-19T04:46:14;6.93;;;3.00;;
59167;SDS011;70412;55.048;73.268;2023-11-19T04:49:17;8.60;;;2.95;;
59167;SDS011;70412;55.048;73.268;2023-11-19T04:52:19;7.53;;;2.65;;
59167;SDS011;70412;55.048;73.268;2023-11-19T04:55:22;12.93;;;3.50;;
59167;SDS011;70412;55.048;73.268;2023-11-19T04:58:24;8.38;;;3.30;;
59167;SDS011;70412;55.048;73.268;2023-11-19T05:01:27;9.73;;;3.75;;
59167;SDS011;70412;55.048;73.268;2023-11-19T05:04:29;5.90;;;2.50;;
59167;SDS011;70412;55.048;73.268;2023-11-19T05:07:32;7.20;;;2.58;;
59167;SDS011;70412;55.048;73.268;2023-11-19T05:10:34;10.02;;;2.80;;
59167;SDS011;70412;55.048;73.268;2023-11-19T05:13:38;7.15;;;3.05;;
59167;SDS011;70412;55.048;73.268;2023-11-19T05:16:40;12.90;;;3.78;;
59167;SDS011;70412;55.048;73.268;2023-11-19T05:19:44;7.78;;;3.38;;
59167;SDS011;70412;55.048;73.268;2023-11-19T05:22:47;15.55;;;5.20;;
59167;SDS011;70412;55.048;73.268;2023-11-19T05:25:49;17.38;;;4.82;;
59167;SDS011;70412;55.048;73.268;2023-11-19T05:28:52;13.13;;;4.20;;
59167;SDS011;70412;55.048;73.268;2023-11-19T05:31:55;5.22;;;2.13;;
59167;SDS011;70412;55.048;73.268;2023-11-19T05:34:57;4.82;;;1.45;;
59167;SDS011;70412;55.048;73.268;2023-11-19T05:37:59;8.02;;;2.45;;
59167;SDS011;70412;55.048;73.268;2023-11-19T05:41:02;9.27;;;3.58;;
59167;SDS011;70412;55.048;73.268;2023-11-19T05:44:06;3.80;;;2.00;;
59167;SDS011;70412;55.048;73.268;2023-11-19T05:47:08;5.55;;;3.05;;
59167;SDS011;70412;55.048;73.268;2023-11-19T05:50:11;9.93;;;3.25;;
59167;SDS011;70412;55.048;73.268;2023-11-19T05:53:13;70.28;;;24.65;;
59167;SDS011;70412;55.048;73.268;2023-11-19T05:56:16;45.30;;;15.63;;
59167;SDS011;70412;55.048;73.268;2023-11-19T05:59:23;28.70;;;13.20;;
59167;SDS011;70412;55.048;73.268;2023-11-19T06:02:30;24.69;;;6.64;;
59167;SDS011;70412;55.048;73.268;2023-11-19T06:05:34;14.93;;;4.68;;
59167;SDS011;70412;55.048;73.268;2023-11-19T06:08:37;28.50;;;9.82;;
59167;SDS011;70412;55.048;73.268;2023-11-19T06:11:39;26.02;;;8.82;;
59167;SDS011;70412;55.048;73.268;2023-11-19T06:14:44;16.10;;;5.07;;
59167;SDS011;70412;55.048;73.268;2023-11-19T06:17:47;10.57;;;3.40;;
59167;SDS011;70412;55.048;73.268;2023-11-19T06:20:50;16.55;;;5.90;;
59167;SDS011;70412;55.048;73.268;2023-11-19T06:23:52;70.63;;;18.63;;
59167;SDS011;70412;55.048;73.268;2023-11-19T06:26:54;26.52;;;7.85;;
59167;SDS011;70412;55.048;73.268;2023-11-19T06:29:57;39.13;;;9.73;;
59167;SDS011;70412;55.048;73.268;2023-11-19T06:32:59;19.57;;;4.83;;
59167;SDS011;70412;55.048;73.268;2023-11-19T06:36:01;16.05;;;5.43;;
59167;SDS011;70412;55.048;73.268;2023-11-19T06:39:03;10.90;;;3.25;;
59167;SDS011;70412;55.048;73.268;2023-11-19T06:42:07;6.25;;;1.77;;
59167;SDS011;70412;55.048;73.268;2023-11-19T06:45:11;5.03;;;1.27;;
59167;SDS011;70412;55.048;73.268;2023-11-19T06:48:14;14.98;;;3.60;;
59167;SDS011;70412;55.048;73.268;2023-11-19T06:51:17;11.32;;;4.00;;
59167;SDS011;70412;55.048;73.268;2023-11-19T06:54:19;9.07;;;2.70;;
59167;SDS011;70412;55.048;73.268;2023-11-19T06:57:21;6.38;;;2.20;;
59167;SDS011;70412;55.048;73.268;2023-11-19T07:00:25;8.23;;;2.47;;
59167;SDS011;70412;55.048;73.268;2023-11-19T07:03:28;57.75;;;20.92;;
59167;SDS011;70412;55.048;73.268;2023-11-19T07:06:30;4.68;;;1.58;;
59167;SDS011;70412;55.048;73.268;2023-11-19T07:09:36;4.55;;;2.10;;
59167;SDS011;70412;55.048;73.268;2023-11-19T10:00:21;8.52;;;3.72;;
59167;SDS011;70412;55.048;73.268;2023-11-19T10:03:24;8.52;;;4.10;;
59167;SDS011;70412;55.048;73.268;2023-11-19T10:06:28;5.18;;;2.90;;
59167;SDS011;70412;55.048;73.268;2023-11-19T10:09:31;8.82;;;2.58;;
59167;SDS011;70412;55.048;73.268;2023-11-19T10:12:33;8.35;;;4.85;;
59167;SDS011;70412;55.048;73.268;2023-11-19T10:15:36;5.93;;;2.40;;
59167;SDS011;70412;55.048;73.268;2023-11-19T10:18:45;6.22;;;3.30;;
59167;SDS011;70412;55.048;73.268;2023-11-19T10:21:51;3.53;;;2.03;;
59167;SDS011;70412;55.048;73.268;2023-11-19T10:24:54;12.45;;;4.07;;
59167;SDS011;70412;55.048;73.268;2023-11-19T10:27:57;8.30;;;3.60;;
59167;SDS011;70412;55.048;73.268;2023-11-19T10:30:59;9.10;;;3.95;;
59167;SDS011;70412;55.048;73.268;2023-11-19T10:34:02;8.55;;;3.20;;
59167;SDS011;70412;55.048;73.268;2023-11-19T10:37:05;7.95;;;3.88;;
59167;SDS011;70412;55.048;73.268;2023-11-19T10:40:08;5.90;;;1.83;;
59167;SDS011;70412;55.048;73.268;2023-11-19T10:43:12;6.40;;;1.80;;
59167;SDS011;70412;55.048;73.268;2023-11-19T10:46:14;10.27;;;3.72;;
59167;SDS011;70412;55.048;73.268;2023-11-19T10:49:22;6.85;;;3.08;;
59167;SDS011;70412;55.048;73.268;2023-11-19T10:52:24;3.08;;;1.52;;
59167;SDS011;70412;55.048;73.268;2023-11-19T10:55:32;6.57;;;2.80;;
59167;SDS011;70412;55.048;73.268;2023-11-19T10:58:36;5.53;;;2.20;;
59167;SDS011;70412;55.048;73.268;2023-11-19T11:01:46;4.65;;;1.90;;
59167;SDS011;70412;55.048;73.268;2023-11-19T11:04:54;5.28;;;2.47;;
59167;SDS011;70412;55.048;73.268;2023-11-19T11:07:58;7.53;;;3.60;;
59167;SDS011;70412;55.048;73.268;2023-11-19T11:11:07;6.88;;;3.17;;
59167;SDS011;70412;55.048;73.268;2023-11-19T11:14:13;8.93;;;3.53;;
59167;SDS011;70412;55.048;73.268;2023-11-19T11:17:18;25.98;;;9.65;;
59167;SDS011;70412;55.048;73.268;2023-11-19T11:20:21;44.20;;;14.88;;
59167;SDS011;70412;55.048;73.268;2023-11-19T11:34:05;62.42;;;14.55;;
59167;SDS011;70412;55.048;73.268;2023-11-19T11:37:36;35.72;;;9.45;;
59167;SDS011;70412;55.048;73.268;2023-11-19T11:41:15;38.77;;;9.90;;
59167;SDS011;70412;55.048;73.268;2023-11-19T11:48:10;28.30;;;8.98;;
59167;SDS011;70412;55.048;73.268;2023-11-19T11:51:14;9.20;;;3.42;;
59167;SDS011;70412;55.048;73.268;2023-11-19T12:00:31;17.30;;;6.38;;
59167;SDS011;70412;55.048;73.268;2023-11-19T12:03:38;33.13;;;9.93;;
59167;SDS011;70412;55.048;73.268;2023-11-19T12:06:41;24.23;;;9.63;;
59167;SDS011;70412;55.048;73.268;2023-11-19T12:09:47;30.05;;;11.40;;
59167;SDS011;70412;55.048;73.268;2023-11-19T12:12:53;7.60;;;3.38;;
59167;SDS011;70412;55.048;73.268;2023-11-19T12:19:14;21.58;;;8.48;;
59167;SDS011;70412;55.048;73.268;2023-11-19T12:22:17;15.60;;;3.47;;
59167;SDS011;70412;55.048;73.268;2023-11-19T12:25:23;19.05;;;7.03;;
59167;SDS011;70412;55.048;73.268;2023-11-19T12:28:39;19.42;;;7.25;;
59167;SDS011;70412;55.048;73.268;2023-11-19T12:31:44;25.73;;;8.27;;
59167;SDS011;70412;55.048;73.268;2023-11-19T12:34:46;12.90;;;4.93;;
59167;SDS011;70412;55.048;73.268;2023-11-19T12:37:49;26.17;;;8.43;;
59167;SDS011;70412;55.048;73.268;2023-11-19T12:41:08;18.33;;;5.72;;
59167;SDS011;70412;55.048;73.268;2023-11-19T12:44:18;30.45;;;12.75;;
59167;SDS011;70412;55.048;73.268;2023-11-19T12:47:23;33.67;;;13.35;;
59167;SDS011;70412;55.048;73.268;2023-11-19T12:50:26;10.13;;;4.53;;
59167;SDS011;70412;55.048;73.268;2023-11-19T12:53:57;18.70;;;7.47;;
59167;SDS011;70412;55.048;73.268;2023-11-19T12:57:00;31.63;;;10.88;;
59167;SDS011;70412;55.048;73.268;2023-11-19T13:00:02;36.15;;;13.55;;
59167;SDS011;70412;55.048;73.268;2023-11-19T13:03:05;52.80;;;14.63;;
59167;SDS011;70412;55.048;73.268;2023-11-19T13:06:09;54.38;;;15.13;;
59167;SDS011;70412;55.048;73.268;2023-11-19T13:09:21;48.45;;;15.88;;
59167;SDS011;70412;55.048;73.268;2023-11-19T13:12:36;30.13;;;8.77;;
59167;SDS011;70412;55.048;73.268;2023-11-19T13:15:38;30.75;;;9.15;;
59167;SDS011;70412;55.048;73.268;2023-11-19T13:18:41;41.05;;;11.75;;
59167;SDS011;70412;55.048;73.268;2023-11-19T13:21:44;31.58;;;9.45;;
59167;SDS011;70412;55.048;73.268;2023-11-19T13:24:48;56.58;;;16.30;;
59167;SDS011;70412;55.048;73.268;2023-11-19T13:27:50;21.65;;;6.63;;
59167;SDS011;70412;55.048;73.268;2023-11-19T13:30:53;24.90;;;8.20;;
59167;SDS011;70412;55.048;73.268;2023-11-19T13:33:55;25.70;;;7.53;;
59167;SDS011;70412;55.048;73.268;2023-11-19T13:37:13;20.92;;;7.00;;
59167;SDS011;70412;55.048;73.268;2023-11-19T13:40:15;22.23;;;6.47;;
59167;SDS011;70412;55.048;73.268;2023-11-19T13:43:17;14.93;;;6.80;;
59167;SDS011;70412;55.048;73.268;2023-11-19T13:46:20;31.38;;;7.57;;
59167;SDS011;70412;55.048;73.268;2023-11-19T13:49:22;42.17;;;10.30;;
59167;SDS011;70412;55.048;73.268;2023-11-19T13:52:27;31.27;;;9.73;;
59167;SDS011;70412;55.048;73.268;2023-11-19T13:55:29;25.80;;;6.63;;
59167;SDS011;70412;55.048;73.268;2023-11-19T13:58:31;21.40;;;5.97;;
59167;SDS011;70412;55.048;73.268;2023-11-19T14:01:34;18.77;;;6.60;;
59167;SDS011;70412;55.048;73.268;2023-11-19T14:04:36;25.45;;;7.53;;
59167;SDS011;70412;55.048;73.268;2023-11-19T14:07:39;21.48;;;8.15;;
59167;SDS011;70412;55.048;73.268;2023-11-19T14:10:42;17.48;;;7.60;;
59167;SDS011;70412;55.048;73.268;2023-11-19T14:13:44;22.10;;;9.38;;
59167;SDS011;70412;55.048;73.268;2023-11-19T14:16:48;36.28;;;13.15;;
59167;SDS011;70412;55.048;73.268;2023-11-19T14:19:50;24.95;;;9.85;;
59167;SDS011;70412;55.048;73.268;2023-11-19T14:22:52;32.03;;;13.88;;
59167;SDS011;70412;55.048;73.268;2023-11-19T14:25:55;26.40;;;12.18;;
59167;SDS011;70412;55.048;73.268;2023-11-19T14:29:00;22.83;;;11.50;;
59167;SDS011;70412;55.048;73.268;2023-11-19T14:32:02;31.08;;;12.95;;
59167;SDS011;70412;55.048;73.268;2023-11-19T14:35:06;27.35;;;12.32;;
59167;SDS011;70412;55.048;73.268;2023-11-19T14:38:09;37.75;;;13.70;;
59167;SDS011;70412;55.048;73.268;2023-11-19T14:41:11;40.75;;;15.00;;
59167;SDS011;70412;55.048;73.268;2023-11-19T14:44:14;34.05;;;12.77;;
59167;SDS011;70412;55.048;73.268;2023-11-19T14:47:16;40.75;;;13.05;;
59167;SDS011;70412;55.048;73.268;2023-11-19T14:50:19;33.88;;;11.63;;
59167;SDS011;70412;55.048;73.268;2023-11-19T14:53:21;28.80;;;10.85;;
59167;SDS011;70412;55.048;73.268;2023-11-19T14:56:24;15.88;;;6.50;;
59167;SDS011;70412;55.048;73.268;2023-11-19T14:59:27;15.35;;;5.45;;
59167;SDS011;70412;55.048;73.268;2023-11-19T15:02:29;12.85;;;5.85;;
59167;SDS011;70412;55.048;73.268;2023-11-19T15:05:32;11.35;;;5.25;;
59167;SDS011;70412;55.048;73.268;2023-11-19T15:08:35;16.90;;;6.60;;
59167;SDS011;70412;55.048;73.268;2023-11-19T15:11:37;20.15;;;9.35;;
59167;SDS011;70412;55.048;73.268;2023-11-19T15:14:39;21.40;;;9.50;;
59167;SDS011;70412;55.048;73.268;2023-11-19T15:17:41;27.65;;;12.05;;
59167;SDS011;70412;55.048;73.268;2023-11-19T15:20:44;26.67;;;9.65;;
59167;SDS011;70412;55.048;73.268;2023-11-19T15:23:48;30.73;;;11.18;;
59167;SDS011;70412;55.048;73.268;2023-11-19T15:26:51;20.05;;;7.35;;
59167;SDS011;70412;55.048;73.268;2023-11-19T15:29:53;22.90;;;10.30;;
59167;SDS011;70412;55.048;73.268;2023-11-19T15:32:56;34.20;;;10.23;;
59167;SDS011;70412;55.048;73.268;2023-11-19T15:35:58;36.13;;;11.02;;
59167;SDS011;70412;55.048;73.268;2023-11-19T15:39:01;22.45;;;8.57;;
59167;SDS011;70412;55.048;73.268;2023-11-19T15:42:04;22.17;;;8.95;;
59167;SDS011;70412;55.048;73.268;2023-11-19T15:45:06;19.15;;;7.10;;
59167;SDS011;70412;55.048;73.268;2023-11-19T15:48:09;27.25;;;10.25;;
59167;SDS011;70412;55.048;73.268;2023-11-19T15:51:15;47.00;;;14.27;;
59167;SDS011;70412;55.048;73.268;2023-11-19T15:54:19;35.30;;;10.77;;
59167;SDS011;70412;55.048;73.268;2023-11-19T15:57:21;37.40;;;13.55;;
59167;SDS011;70412;55.048;73.268;2023-11-19T16:00:25;90.55;;;22.00;;
59167;SDS011;70412;55.048;73.268;2023-11-19T16:03:28;51.30;;;13.32;;
59167;SDS011;70412;55.048;73.268;2023-11-19T16:06:31;44.15;;;14.73;;
59167;SDS011;70412;55.048;73.268;2023-11-19T16:09:33;65.28;;;17.65;;
59167;SDS011;70412;55.048;73.268;2023-11-19T16:12:36;48.97;;;12.23;;
59167;SDS011;70412;55.048;73.268;2023-11-19T16:15:39;32.55;;;10.77;;
59167;SDS011;70412;55.048;73.268;2023-11-19T16:18:41;64.13;;;15.93;;
59167;SDS011;70412;55.048;73.268;2023-11-19T16:21:43;23.33;;;7.70;;
59167;SDS011;70412;55.048;73.268;2023-11-19T16:24:46;17.15;;;5.90;;
59167;SDS011;70412;55.048;73.268;2023-11-19T16:27:49;23.85;;;9.25;;
59167;SDS011;70412;55.048;73.268;2023-11-19T16:30:52;34.00;;;10.23;;
59167;SDS011;70412;55.048;73.268;2023-11-19T16:33:54;29.98;;;10.45;;
59167;SDS011;70412;55.048;73.268;2023-11-19T16:36:56;28.60;;;9.35;;
59167;SDS011;70412;55.048;73.268;2023-11-19T16:39:59;15.38;;;6.68;;
59167;SDS011;70412;55.048;73.268;2023-11-19T16:43:01;21.95;;;6.80;;
59167;SDS011;70412;55.048;73.268;2023-11-19T16:46:03;22.40;;;8.43;;
59167;SDS011;70412;55.048;73.268;2023-11-19T16:49:06;15.32;;;7.15;;
59167;SDS011;70412;55.048;73.268;2023-11-19T16:52:08;16.73;;;6.22;;
59167;SDS011;70412;55.048;73.268;2023-11-19T16:55:11;12.52;;;4.53;;
59167;SDS011;70412;55.048;73.268;2023-11-19T16:58:13;14.18;;;5.18;;
59167;SDS011;70412;55.048;73.268;2023-11-19T17:01:16;6.85;;;3.15;;
59167;SDS011;70412;55.048;73.268;2023-11-19T17:04:19;31.02;;;10.00;;
59167;SDS011;70412;55.048;73.268;2023-11-19T17:07:22;16.55;;;5.07;;
59167;SDS011;70412;55.048;73.268;2023-11-19T17:10:28;15.93;;;5.85;;
59167;SDS011;70412;55.048;73.268;2023-11-19T17:13:30;11.90;;;4.00;;
59167;SDS011;70412;55.048;73.268;2023-11-19T17:16:33;21.98;;;7.15;;
59167;SDS011;70412;55.048;73.268;2023-11-19T17:19:37;14.43;;;5.50;;
59167;SDS011;70412;55.048;73.268;2023-11-19T17:22:40;11.00;;;4.22;;
59167;SDS011;70412;55.048;73.268;2023-11-19T17:25:43;22.80;;;6.13;;
59167;SDS011;70412;55.048;73.268;2023-11-19T17:28:45;11.88;;;5.50;;
59167;SDS011;70412;55.048;73.268;2023-11-19T17:31:48;11.23;;;4.32;;
59167;SDS011;70412;55.048;73.268;2023-11-19T17:34:50;31.25;;;6.90;;
59167;SDS011;70412;55.048;73.268;2023-11-19T17:37:53;16.67;;;4.82;;
59167;SDS011;70412;55.048;73.268;2023-11-19T17:40:56;15.65;;;4.70;;
59167;SDS011;70412;55.048;73.268;2023-11-19T17:43:59;17.92;;;6.30;;
59167;SDS011;70412;55.048;73.268;2023-11-19T17:47:05;31.58;;;6.65;;
59167;SDS011;70412;55.048;73.268;2023-11-19T17:50:08;31.17;;;7.15;;
59167;SDS011;70412;55.048;73.268;2023-11-19T17:53:10;20.95;;;5.75;;
59167;SDS011;70412;55.048;73.268;2023-11-19T17:56:13;25.13;;;6.13;;
59167;SDS011;70412;55.048;73.268;2023-11-19T17:59:17;16.30;;;4.35;;
59167;SDS011;70412;55.048;73.268;2023-11-19T18:02:20;15.13;;;4.50;;
59167;SDS011;70412;55.048;73.268;2023-11-19T18:05:23;16.35;;;4.47;;
59167;SDS011;70412;55.048;73.268;2023-11-19T18:08:25;40.28;;;8.63;;
59167;SDS011;70412;55.048;73.268;2023-11-19T18:11:28;59.85;;;12.13;;
59167;SDS011;70412;55.048;73.268;2023-11-19T18:14:30;30.67;;;6.88;;
59167;SDS011;70412;55.048;73.268;2023-11-19T18:17:32;26.65;;;6.68;;
59167;SDS011;70412;55.048;73.268;2023-11-19T18:20:35;9.63;;;3.78;;
59167;SDS011;70412;55.048;73.268;2023-11-19T18:23:38;9.75;;;3.35;;
59167;SDS011;70412;55.048;73.268;2023-11-19T18:26:40;10.20;;;4.07;;
59167;SDS011;70412;55.048;73.268;2023-11-19T18:29:43;10.70;;;3.92;;
59167;SDS011;70412;55.048;73.268;2023-11-19T18:32:48;7.28;;;2.95;;
59167;SDS011;70412;55.048;73.268;2023-11-19T18:35:51;7.60;;;2.67;;
59167;SDS011;70412;55.048;73.268;2023-11-19T18:38:54;19.92;;;4.40;;
59167;SDS011;70412;55.048;73.268;2023-11-19T18:41:59;18.88;;;6.13;;
59167;SDS011;70412;55.048;73.268;2023-11-19T18:45:04;19.95;;;4.93;;
59167;SDS011;70412;55.048;73.268;2023-11-19T18:48:11;7.47;;;2.50;;
59167;SDS011;70412;55.048;73.268;2023-11-19T18:51:14;16.27;;;4.57;;
59167;SDS011;70412;55.048;73.268;2023-11-19T18:54:16;13.48;;;4.00;;
59167;SDS011;70412;55.048;73.268;2023-11-19T18:57:20;9.85;;;2.90;;
59167;SDS011;70412;55.048;73.268;2023-11-19T19:00:23;10.60;;;3.53;;
59167;SDS011;70412;55.048;73.268;2023-11-19T19:03:27;12.40;;;4.18;;
59167;SDS011;70412;55.048;73.268;2023-11-19T19:06:32;10.57;;;3.88;;
59167;SDS011;70412;55.048;73.268;2023-11-19T19:09:36;9.15;;;3.00;;
59167;SDS011;70412;55.048;73.268;2023-11-19T19:12:41;10.64;;;2.98;;
59167;SDS011;70412;55.048;73.268;2023-11-19T19:15:44;13.05;;;3.92;;
59167;SDS011;70412;55.048;73.268;2023-11-19T19:18:47;8.63;;;3.22;;
59167;SDS011;70412;55.048;73.268;2023-11-19T19:21:51;10.20;;;3.35;;
59167;SDS011;70412;55.048;73.268;2023-11-19T19:24:53;10.13;;;3.13;;
59167;SDS011;70412;55.048;73.268;2023-11-19T19:27:56;9.60;;;4.25;;
59167;SDS011;70412;55.048;73.268;2023-11-19T19:30:59;6.68;;;3.22;;
59167;SDS011;70412;55.048;73.268;2023-11-19T19:34:01;6.30;;;2.90;;
59167;SDS011;70412;55.048;73.268;2023-11-19T19:37:04;17.63;;;6.68;;
59167;SDS011;70412;55.048;73.268;2023-11-19T19:40:07;8.23;;;3.38;;
59167;SDS011;70412;55.048;73.268;2023-11-19T19:43:12;13.50;;;3.17;;
59167;SDS011;70412;55.048;73.268;2023-11-19T19:46:15;10.60;;;4.05;;
59167;SDS011;70412;55.048;73.268;2023-11-19T19:49:17;12.75;;;4.93;;
59167;SDS011;70412;55.048;73.268;2023-11-19T19:52:19;9.23;;;3.58;;
59167;SDS011;70412;55.048;73.268;2023-11-19T19:55:22;6.47;;;2.45;;
59167;SDS011;70412;55.048;73.268;2023-11-19T19:58:25;8.18;;;3.33;;
59167;SDS011;70412;55.048;73.268;2023-11-19T20:01:27;8.77;;;3.22;;
59167;SDS011;70412;55.048;73.268;2023-11-19T20:04:29;9.68;;;3.63;;
59167;SDS011;70412;55.048;73.268;2023-11-19T20:07:32;10.88;;;3.08;;
59167;SDS011;70412;55.048;73.268;2023-11-19T20:10:34;10.48;;;3.60;;
59167;SDS011;70412;55.048;73.268;2023-11-19T20:13:37;11.15;;;2.65;;
59167;SDS011;70412;55.048;73.268;2023-11-19T20:16:42;11.25;;;4.82;;
59167;SDS011;70412;55.048;73.268;2023-11-19T20:19:44;8.00;;;3.17;;
59167;SDS011;70412;55.048;73.268;2023-11-19T20:22:48;9.70;;;3.45;;
59167;SDS011;70412;55.048;73.268;2023-11-19T20:25:54;7.60;;;3.47;;
59167;SDS011;70412;55.048;73.268;2023-11-19T20:28:57;12.73;;;3.78;;
59167;SDS011;70412;55.048;73.268;2023-11-19T20:31:59;7.38;;;3.30;;
59167;SDS011;70412;55.048;73.268;2023-11-19T20:35:02;8.52;;;3.30;;
59167;SDS011;70412;55.048;73.268;2023-11-19T20:38:06;9.27;;;3.22;;
59167;SDS011;70412;55.048;73.268;2023-11-19T20:41:09;7.13;;;2.67;;
59167;SDS011;70412;55.048;73.268;2023-11-19T20:44:11;4.45;;;2.15;;
59167;SDS011;70412;55.048;73.268;2023-11-19T20:47:13;12.20;;;3.35;;
59167;SDS011;70412;55.048;73.268;2023-11-19T20:50:15;10.32;;;3.40;;
59167;SDS011;70412;55.048;73.268;2023-11-19T20:53:18;7.45;;;2.70;;
59167;SDS011;70412;55.048;73.268;2023-11-19T20:56:20;6.05;;;2.03;;
59167;SDS011;70412;55.048;73.268;2023-11-19T20:59:22;9.57;;;2.88;;
59167;SDS011;70412;55.048;73.268;2023-11-19T21:02:25;7.97;;;3.33;;
59167;SDS011;70412;55.048;73.268;2023-11-19T21:05:27;10.15;;;3.90;;
59167;SDS011;70412;55.048;73.268;2023-11-19T21:08:29;7.97;;;3.00;;
59167;SDS011;70412;55.048;73.268;2023-11-19T21:11:31;4.88;;;2.22;;
59167;SDS011;70412;55.048;73.268;2023-11-19T21:14:34;9.65;;;3.10;;